ADDS METAR Data

Data at: 0529 UTC 19 Jan 2018

METAR for:KACK (Nantucket Mem Arpt, MA, US)
Text:KACK 190453Z AUTO 31009KT 10SM BKN031 M02/M06 A2992 RMK AO2 SLP133 T10221061 400061022 TSNO
Temperature: -2.2°C ( 28°F)
Dewpoint: -6.1°C ( 21°F) [RH = 75%]
Pressure (altimeter):29.92 inches Hg (1013.3 mb) [Sea level pressure: 1013.3 mb]
Winds:from the NW (310 degrees) at 10 MPH (9 knots; 4.6 m/s)
Visibility:10 or more sm (16+ km)
Ceiling:3100 feet AGL
Clouds: broken clouds at 3100 feet AGL
QC Flag:automated observation with no human augmentation